sensor_id;sensor_type;location;lat;lon;timestamp;P1;durP1;ratioP1;P2;durP2;ratioP2
52468;SDS011;38381;53.688;10.776;2022-12-07T00:03:02;14.10;;;10.57;;
52468;SDS011;38381;53.688;10.776;2022-12-07T00:08:03;14.23;;;10.23;;
52468;SDS011;38381;53.688;10.776;2022-12-07T00:13:03;15.70;;;11.80;;
52468;SDS011;38381;53.688;10.776;2022-12-07T00:18:04;17.40;;;11.18;;
52468;SDS011;38381;53.688;10.776;2022-12-07T00:23:04;18.08;;;15.23;;
52468;SDS011;38381;53.688;10.776;2022-12-07T00:28:04;19.60;;;14.15;;
52468;SDS011;38381;53.688;10.776;2022-12-07T00:33:05;16.13;;;13.95;;
52468;SDS011;38381;53.688;10.776;2022-12-07T00:38:05;18.23;;;13.02;;
52468;SDS011;38381;53.688;10.776;2022-12-07T00:43:06;18.88;;;12.85;;
52468;SDS011;38381;53.688;10.776;2022-12-07T00:48:06;16.80;;;13.38;;
52468;SDS011;38381;53.688;10.776;2022-12-07T00:53:06;17.87;;;13.00;;
52468;SDS011;38381;53.688;10.776;2022-12-07T00:58:07;16.00;;;13.20;;
52468;SDS011;38381;53.688;10.776;2022-12-07T01:03:08;16.50;;;14.23;;
52468;SDS011;38381;53.688;10.776;2022-12-07T01:08:10;16.85;;;12.48;;
52468;SDS011;38381;53.688;10.776;2022-12-07T01:13:10;20.73;;;15.20;;
52468;SDS011;38381;53.688;10.776;2022-12-07T01:18:11;19.05;;;15.50;;
52468;SDS011;38381;53.688;10.776;2022-12-07T01:23:11;18.10;;;14.93;;
52468;SDS011;38381;53.688;10.776;2022-12-07T01:28:11;18.95;;;14.35;;
52468;SDS011;38381;53.688;10.776;2022-12-07T01:33:12;18.55;;;15.77;;
52468;SDS011;38381;53.688;10.776;2022-12-07T01:38:12;18.85;;;15.02;;
52468;SDS011;38381;53.688;10.776;2022-12-07T01:43:16;19.63;;;15.60;;
52468;SDS011;38381;53.688;10.776;2022-12-07T01:48:18;18.27;;;14.07;;
52468;SDS011;38381;53.688;10.776;2022-12-07T01:53:24;20.77;;;15.40;;
52468;SDS011;38381;53.688;10.776;2022-12-07T01:58:26;18.42;;;14.15;;
52468;SDS011;38381;53.688;10.776;2022-12-07T02:04:01;18.67;;;16.05;;
52468;SDS011;38381;53.688;10.776;2022-12-07T02:08:55;20.05;;;14.15;;
52468;SDS011;38381;53.688;10.776;2022-12-07T02:13:55;16.73;;;13.68;;
52468;SDS011;38381;53.688;10.776;2022-12-07T02:29:53;20.33;;;15.18;;
52468;SDS011;38381;53.688;10.776;2022-12-07T02:35:07;18.08;;;13.98;;
52468;SDS011;38381;53.688;10.776;2022-12-07T02:45:29;15.07;;;12.27;;
52468;SDS011;38381;53.688;10.776;2022-12-07T02:50:31;17.27;;;13.13;;
52468;SDS011;38381;53.688;10.776;2022-12-07T02:55:34;13.32;;;9.65;;
52468;SDS011;38381;53.688;10.776;2022-12-07T03:00:44;13.32;;;10.05;;
52468;SDS011;38381;53.688;10.776;2022-12-07T03:06:13;11.15;;;9.48;;
52468;SDS011;38381;53.688;10.776;2022-12-07T03:16:33;9.88;;;7.63;;
52468;SDS011;38381;53.688;10.776;2022-12-07T03:21:41;8.35;;;5.72;;
52468;SDS011;38381;53.688;10.776;2022-12-07T03:26:49;7.90;;;5.68;;
52468;SDS011;38381;53.688;10.776;2022-12-07T03:31:58;8.82;;;6.28;;
52468;SDS011;38381;53.688;10.776;2022-12-07T03:37:34;11.32;;;7.40;;
52468;SDS011;38381;53.688;10.776;2022-12-07T03:42:38;10.75;;;7.35;;
52468;SDS011;38381;53.688;10.776;2022-12-07T03:47:52;9.02;;;6.85;;
52468;SDS011;38381;53.688;10.776;2022-12-07T03:52:56;8.73;;;7.00;;
52468;SDS011;38381;53.688;10.776;2022-12-07T03:58:01;6.63;;;5.85;;
52468;SDS011;38381;53.688;10.776;2022-12-07T04:03:06;7.43;;;6.32;;
52468;SDS011;38381;53.688;10.776;2022-12-07T04:08:06;6.38;;;5.22;;
52468;SDS011;38381;53.688;10.776;2022-12-07T04:13:07;6.22;;;5.63;;
52468;SDS011;38381;53.688;10.776;2022-12-07T04:18:07;8.48;;;7.03;;
52468;SDS011;38381;53.688;10.776;2022-12-07T04:23:07;7.82;;;5.85;;
52468;SDS011;38381;53.688;10.776;2022-12-07T04:28:08;6.72;;;4.78;;
52468;SDS011;38381;53.688;10.776;2022-12-07T04:33:08;7.32;;;4.75;;
52468;SDS011;38381;53.688;10.776;2022-12-07T04:38:09;7.43;;;5.30;;
52468;SDS011;38381;53.688;10.776;2022-12-07T04:43:09;7.05;;;4.70;;
52468;SDS011;38381;53.688;10.776;2022-12-07T04:48:09;4.82;;;3.95;;
52468;SDS011;38381;53.688;10.776;2022-12-07T04:53:10;5.25;;;4.25;;
52468;SDS011;38381;53.688;10.776;2022-12-07T04:58:11;5.00;;;4.00;;
52468;SDS011;38381;53.688;10.776;2022-12-07T05:03:12;4.43;;;3.97;;
52468;SDS011;38381;53.688;10.776;2022-12-07T05:08:13;4.88;;;4.38;;
52468;SDS011;38381;53.688;10.776;2022-12-07T05:13:16;4.50;;;4.10;;
52468;SDS011;38381;53.688;10.776;2022-12-07T05:18:16;6.07;;;4.15;;
52468;SDS011;38381;53.688;10.776;2022-12-07T05:23:17;4.15;;;3.78;;
52468;SDS011;38381;53.688;10.776;2022-12-07T05:28:18;5.03;;;4.43;;
52468;SDS011;38381;53.688;10.776;2022-12-07T05:33:18;5.05;;;4.53;;
52468;SDS011;38381;53.688;10.776;2022-12-07T05:38:19;5.20;;;4.68;;
52468;SDS011;38381;53.688;10.776;2022-12-07T05:43:19;5.15;;;4.65;;
52468;SDS011;38381;53.688;10.776;2022-12-07T05:48:20;6.18;;;5.20;;
52468;SDS011;38381;53.688;10.776;2022-12-07T05:53:20;5.45;;;4.65;;
52468;SDS011;38381;53.688;10.776;2022-12-07T05:58:21;6.00;;;5.40;;
52468;SDS011;38381;53.688;10.776;2022-12-07T06:03:39;7.43;;;6.13;;
52468;SDS011;38381;53.688;10.776;2022-12-07T06:08:40;8.10;;;6.40;;
52468;SDS011;38381;53.688;10.776;2022-12-07T06:13:40;9.88;;;6.00;;
52468;SDS011;38381;53.688;10.776;2022-12-07T06:18:41;6.93;;;6.23;;
52468;SDS011;38381;53.688;10.776;2022-12-07T06:23:41;8.38;;;6.20;;
52468;SDS011;38381;53.688;10.776;2022-12-07T06:28:42;7.85;;;5.30;;
52468;SDS011;38381;53.688;10.776;2022-12-07T06:33:42;6.97;;;6.00;;
52468;SDS011;38381;53.688;10.776;2022-12-07T06:38:43;7.03;;;5.57;;
52468;SDS011;38381;53.688;10.776;2022-12-07T06:43:43;7.63;;;6.35;;
52468;SDS011;38381;53.688;10.776;2022-12-07T06:48:44;6.72;;;5.47;;
52468;SDS011;38381;53.688;10.776;2022-12-07T06:53:44;6.57;;;5.68;;
52468;SDS011;38381;53.688;10.776;2022-12-07T06:58:45;6.22;;;5.60;;
52468;SDS011;38381;53.688;10.776;2022-12-07T07:03:45;6.90;;;5.85;;
52468;SDS011;38381;53.688;10.776;2022-12-07T07:08:46;5.97;;;5.38;;
52468;SDS011;38381;53.688;10.776;2022-12-07T07:13:47;6.90;;;6.15;;
52468;SDS011;38381;53.688;10.776;2022-12-07T07:18:47;6.68;;;5.68;;
52468;SDS011;38381;53.688;10.776;2022-12-07T07:23:48;7.05;;;5.65;;
52468;SDS011;38381;53.688;10.776;2022-12-07T07:28:48;7.32;;;6.00;;
52468;SDS011;38381;53.688;10.776;2022-12-07T07:33:48;5.88;;;5.30;;
52468;SDS011;38381;53.688;10.776;2022-12-07T07:38:49;13.80;;;6.45;;
52468;SDS011;38381;53.688;10.776;2022-12-07T07:43:49;6.95;;;5.80;;
52468;SDS011;38381;53.688;10.776;2022-12-07T07:48:50;7.78;;;6.90;;
52468;SDS011;38381;53.688;10.776;2022-12-07T07:53:50;7.75;;;4.90;;
52468;SDS011;38381;53.688;10.776;2022-12-07T07:58:52;6.15;;;4.82;;
52468;SDS011;38381;53.688;10.776;2022-12-07T08:03:52;10.35;;;5.32;;
52468;SDS011;38381;53.688;10.776;2022-12-07T08:08:53;8.25;;;4.93;;
52468;SDS011;38381;53.688;10.776;2022-12-07T08:13:53;6.00;;;5.40;;
52468;SDS011;38381;53.688;10.776;2022-12-07T08:18:53;5.97;;;5.18;;
52468;SDS011;38381;53.688;10.776;2022-12-07T08:23:54;6.45;;;5.07;;
52468;SDS011;38381;53.688;10.776;2022-12-07T08:28:54;5.35;;;4.85;;
52468;SDS011;38381;53.688;10.776;2022-12-07T08:33:55;7.10;;;5.00;;
52468;SDS011;38381;53.688;10.776;2022-12-07T08:38:55;5.47;;;4.80;;
52468;SDS011;38381;53.688;10.776;2022-12-07T08:43:56;6.38;;;4.65;;
52468;SDS011;38381;53.688;10.776;2022-12-07T08:49:08;5.72;;;5.10;;
52468;SDS011;38381;53.688;10.776;2022-12-07T08:54:11;6.82;;;4.25;;
52468;SDS011;38381;53.688;10.776;2022-12-07T08:59:14;4.45;;;3.97;;
52468;SDS011;38381;53.688;10.776;2022-12-07T09:04:17;5.07;;;4.20;;
52468;SDS011;38381;53.688;10.776;2022-12-07T09:09:18;4.03;;;3.33;;
52468;SDS011;38381;53.688;10.776;2022-12-07T09:14:19;6.70;;;3.55;;
52468;SDS011;38381;53.688;10.776;2022-12-07T09:19:19;7.70;;;3.78;;
52468;SDS011;38381;53.688;10.776;2022-12-07T09:24:20;5.00;;;3.88;;
52468;SDS011;38381;53.688;10.776;2022-12-07T09:29:20;4.95;;;3.60;;
52468;SDS011;38381;53.688;10.776;2022-12-07T09:34:21;5.38;;;3.22;;
52468;SDS011;38381;53.688;10.776;2022-12-07T09:39:21;3.70;;;3.40;;
52468;SDS011;38381;53.688;10.776;2022-12-07T09:44:23;3.25;;;2.95;;
52468;SDS011;38381;53.688;10.776;2022-12-07T09:49:25;5.85;;;3.00;;
52468;SDS011;38381;53.688;10.776;2022-12-07T09:54:30;4.03;;;3.05;;
52468;SDS011;38381;53.688;10.776;2022-12-07T09:59:34;6.30;;;3.78;;
52468;SDS011;38381;53.688;10.776;2022-12-07T10:04:34;3.05;;;2.63;;
52468;SDS011;38381;53.688;10.776;2022-12-07T10:09:37;5.47;;;3.13;;
52468;SDS011;38381;53.688;10.776;2022-12-07T10:14:39;4.95;;;2.55;;
52468;SDS011;38381;53.688;10.776;2022-12-07T10:20:16;3.00;;;2.40;;
52468;SDS011;38381;53.688;10.776;2022-12-07T10:25:25;4.50;;;2.55;;
52468;SDS011;38381;53.688;10.776;2022-12-07T10:30:33;6.28;;;3.33;;
52468;SDS011;38381;53.688;10.776;2022-12-07T10:40:46;5.95;;;2.88;;
52468;SDS011;38381;53.688;10.776;2022-12-07T10:56:09;3.20;;;2.58;;
52468;SDS011;38381;53.688;10.776;2022-12-07T11:33:26;4.10;;;2.90;;
52468;SDS011;38381;53.688;10.776;2022-12-07T11:38:41;5.63;;;3.87;;
52468;SDS011;38381;53.688;10.776;2022-12-07T11:49:23;3.70;;;3.10;;
52468;SDS011;38381;53.688;10.776;2022-12-07T11:54:37;6.72;;;2.38;;
52468;SDS011;38381;53.688;10.776;2022-12-07T11:59:50;5.35;;;3.13;;
52468;SDS011;38381;53.688;10.776;2022-12-07T12:10:19;2.83;;;2.40;;
52468;SDS011;38381;53.688;10.776;2022-12-07T12:15:34;3.00;;;2.38;;
52468;SDS011;38381;53.688;10.776;2022-12-07T12:20:48;2.75;;;1.90;;
52468;SDS011;38381;53.688;10.776;2022-12-07T12:25:52;6.22;;;2.60;;
52468;SDS011;38381;53.688;10.776;2022-12-07T12:46:37;4.00;;;2.20;;
52468;SDS011;38381;53.688;10.776;2022-12-07T13:02:21;4.63;;;2.33;;
52468;SDS011;38381;53.688;10.776;2022-12-07T13:12:54;2.53;;;1.90;;
52468;SDS011;38381;53.688;10.776;2022-12-07T13:17:57;4.30;;;3.17;;
52468;SDS011;38381;53.688;10.776;2022-12-07T13:23:00;3.90;;;2.28;;
52468;SDS011;38381;53.688;10.776;2022-12-07T13:28:04;3.33;;;2.05;;
52468;SDS011;38381;53.688;10.776;2022-12-07T13:33:13;2.13;;;1.95;;
52468;SDS011;38381;53.688;10.776;2022-12-07T13:38:25;2.88;;;2.17;;
52468;SDS011;38381;53.688;10.776;2022-12-07T13:43:28;7.88;;;2.00;;
52468;SDS011;38381;53.688;10.776;2022-12-07T13:48:47;3.25;;;1.90;;
52468;SDS011;38381;53.688;10.776;2022-12-07T13:53:54;2.28;;;1.65;;
52468;SDS011;38381;53.688;10.776;2022-12-07T13:58:56;3.13;;;2.10;;
52468;SDS011;38381;53.688;10.776;2022-12-07T14:04:16;1.52;;;1.35;;
52468;SDS011;38381;53.688;10.776;2022-12-07T14:09:26;2.47;;;1.63;;
52468;SDS011;38381;53.688;10.776;2022-12-07T14:14:29;3.42;;;1.85;;
52468;SDS011;38381;53.688;10.776;2022-12-07T14:25:13;4.38;;;1.98;;
52468;SDS011;38381;53.688;10.776;2022-12-07T14:30:22;2.50;;;1.60;;
52468;SDS011;38381;53.688;10.776;2022-12-07T14:35:24;4.93;;;1.77;;
52468;SDS011;38381;53.688;10.776;2022-12-07T14:40:26;4.55;;;1.90;;
52468;SDS011;38381;53.688;10.776;2022-12-07T14:45:28;2.25;;;1.75;;
52468;SDS011;38381;53.688;10.776;2022-12-07T14:50:28;1.55;;;1.40;;
52468;SDS011;38381;53.688;10.776;2022-12-07T14:55:30;2.85;;;1.73;;
52468;SDS011;38381;53.688;10.776;2022-12-07T15:00:31;2.63;;;2.03;;
52468;SDS011;38381;53.688;10.776;2022-12-07T15:05:31;2.25;;;2.03;;
52468;SDS011;38381;53.688;10.776;2022-12-07T15:10:33;3.65;;;1.65;;
52468;SDS011;38381;53.688;10.776;2022-12-07T15:15:34;2.90;;;1.70;;
52468;SDS011;38381;53.688;10.776;2022-12-07T15:20:34;4.18;;;1.83;;
52468;SDS011;38381;53.688;10.776;2022-12-07T15:25:35;3.60;;;2.25;;
52468;SDS011;38381;53.688;10.776;2022-12-07T15:30:39;2.30;;;1.85;;
52468;SDS011;38381;53.688;10.776;2022-12-07T15:35:43;1.88;;;1.73;;
52468;SDS011;38381;53.688;10.776;2022-12-07T15:40:47;2.17;;;1.50;;
52468;SDS011;38381;53.688;10.776;2022-12-07T15:45:49;2.88;;;2.38;;
52468;SDS011;38381;53.688;10.776;2022-12-07T15:50:50;2.60;;;1.92;;
52468;SDS011;38381;53.688;10.776;2022-12-07T15:55:50;2.03;;;1.77;;
52468;SDS011;38381;53.688;10.776;2022-12-07T16:00:51;3.65;;;2.15;;
52468;SDS011;38381;53.688;10.776;2022-12-07T16:05:51;2.65;;;1.90;;
52468;SDS011;38381;53.688;10.776;2022-12-07T16:10:53;2.28;;;1.90;;
52468;SDS011;38381;53.688;10.776;2022-12-07T16:15:53;1.80;;;1.70;;
52468;SDS011;38381;53.688;10.776;2022-12-07T16:20:53;2.67;;;2.47;;
52468;SDS011;38381;53.688;10.776;2022-12-07T16:25:54;1.83;;;1.70;;
52468;SDS011;38381;53.688;10.776;2022-12-07T16:31:04;2.22;;;2.03;;
52468;SDS011;38381;53.688;10.776;2022-12-07T16:36:07;2.35;;;2.03;;
52468;SDS011;38381;53.688;10.776;2022-12-07T16:41:10;4.07;;;2.53;;
52468;SDS011;38381;53.688;10.776;2022-12-07T16:46:10;4.47;;;3.60;;
52468;SDS011;38381;53.688;10.776;2022-12-07T16:51:12;2.97;;;2.67;;
52468;SDS011;38381;53.688;10.776;2022-12-07T17:01:18;5.57;;;5.00;;
52468;SDS011;38381;53.688;10.776;2022-12-07T17:06:23;4.90;;;3.05;;
52468;SDS011;38381;53.688;10.776;2022-12-07T17:11:26;3.35;;;2.50;;
52468;SDS011;38381;53.688;10.776;2022-12-07T17:16:28;4.20;;;2.33;;
52468;SDS011;38381;53.688;10.776;2022-12-07T17:21:29;3.30;;;2.47;;
52468;SDS011;38381;53.688;10.776;2022-12-07T17:26:29;3.60;;;2.92;;
52468;SDS011;38381;53.688;10.776;2022-12-07T17:31:31;4.18;;;3.78;;
52468;SDS011;38381;53.688;10.776;2022-12-07T17:36:32;3.33;;;3.08;;
52468;SDS011;38381;53.688;10.776;2022-12-07T17:41:32;2.95;;;2.63;;
52468;SDS011;38381;53.688;10.776;2022-12-07T17:46:52;6.20;;;5.60;;
52468;SDS011;38381;53.688;10.776;2022-12-07T17:52:01;3.58;;;2.88;;
52468;SDS011;38381;53.688;10.776;2022-12-07T17:57:20;4.50;;;3.05;;
52468;SDS011;38381;53.688;10.776;2022-12-07T18:02:21;6.60;;;2.83;;
52468;SDS011;38381;53.688;10.776;2022-12-07T18:07:21;2.50;;;2.28;;
52468;SDS011;38381;53.688;10.776;2022-12-07T18:12:22;2.90;;;2.70;;
52468;SDS011;38381;53.688;10.776;2022-12-07T18:17:22;5.40;;;3.10;;
52468;SDS011;38381;53.688;10.776;2022-12-07T18:22:23;3.33;;;2.72;;
52468;SDS011;38381;53.688;10.776;2022-12-07T18:27:24;2.42;;;2.00;;
52468;SDS011;38381;53.688;10.776;2022-12-07T18:32:24;4.63;;;2.63;;
52468;SDS011;38381;53.688;10.776;2022-12-07T18:37:25;3.67;;;2.83;;
52468;SDS011;38381;53.688;10.776;2022-12-07T18:42:29;3.25;;;2.42;;
52468;SDS011;38381;53.688;10.776;2022-12-07T18:47:29;2.75;;;2.55;;
52468;SDS011;38381;53.688;10.776;2022-12-07T18:52:30;3.15;;;2.67;;
52468;SDS011;38381;53.688;10.776;2022-12-07T18:57:31;3.55;;;2.15;;
52468;SDS011;38381;53.688;10.776;2022-12-07T19:02:32;8.98;;;2.50;;
52468;SDS011;38381;53.688;10.776;2022-12-07T19:07:33;2.47;;;2.28;;
52468;SDS011;38381;53.688;10.776;2022-12-07T19:12:34;2.88;;;2.40;;
52468;SDS011;38381;53.688;10.776;2022-12-07T19:17:34;3.95;;;2.30;;
52468;SDS011;38381;53.688;10.776;2022-12-07T19:22:35;2.88;;;2.55;;
52468;SDS011;38381;53.688;10.776;2022-12-07T19:27:35;6.40;;;3.28;;
52468;SDS011;38381;53.688;10.776;2022-12-07T19:32:36;2.60;;;2.40;;
52468;SDS011;38381;53.688;10.776;2022-12-07T19:37:37;3.67;;;3.10;;
52468;SDS011;38381;53.688;10.776;2022-12-07T19:42:37;3.28;;;2.95;;
52468;SDS011;38381;53.688;10.776;2022-12-07T19:47:37;4.78;;;2.80;;
52468;SDS011;38381;53.688;10.776;2022-12-07T19:52:38;2.58;;;2.30;;
52468;SDS011;38381;53.688;10.776;2022-12-07T19:57:38;3.03;;;2.65;;
52468;SDS011;38381;53.688;10.776;2022-12-07T20:02:39;3.15;;;2.70;;
52468;SDS011;38381;53.688;10.776;2022-12-07T20:07:39;2.85;;;2.65;;
52468;SDS011;38381;53.688;10.776;2022-12-07T20:12:40;2.72;;;2.40;;
52468;SDS011;38381;53.688;10.776;2022-12-07T20:18:01;4.78;;;2.90;;
52468;SDS011;38381;53.688;10.776;2022-12-07T20:23:01;3.40;;;2.80;;
52468;SDS011;38381;53.688;10.776;2022-12-07T20:28:01;5.65;;;3.40;;
52468;SDS011;38381;53.688;10.776;2022-12-07T20:33:02;5.30;;;3.60;;
52468;SDS011;38381;53.688;10.776;2022-12-07T20:38:03;3.85;;;3.55;;
52468;SDS011;38381;53.688;10.776;2022-12-07T20:43:03;4.82;;;3.58;;
52468;SDS011;38381;53.688;10.776;2022-12-07T20:48:03;3.70;;;2.83;;
52468;SDS011;38381;53.688;10.776;2022-12-07T20:53:04;3.13;;;2.63;;
52468;SDS011;38381;53.688;10.776;2022-12-07T20:58:04;3.47;;;3.17;;
52468;SDS011;38381;53.688;10.776;2022-12-07T21:03:05;4.70;;;4.18;;
52468;SDS011;38381;53.688;10.776;2022-12-07T21:08:06;5.53;;;3.90;;
52468;SDS011;38381;53.688;10.776;2022-12-07T21:13:06;6.60;;;3.70;;
52468;SDS011;38381;53.688;10.776;2022-12-07T21:18:06;3.03;;;2.70;;
52468;SDS011;38381;53.688;10.776;2022-12-07T21:23:07;6.00;;;3.67;;
52468;SDS011;38381;53.688;10.776;2022-12-07T21:28:07;3.37;;;3.03;;
52468;SDS011;38381;53.688;10.776;2022-12-07T21:33:07;4.37;;;3.93;;
52468;SDS011;38381;53.688;10.776;2022-12-07T21:38:08;4.72;;;3.03;;
52468;SDS011;38381;53.688;10.776;2022-12-07T21:43:08;6.80;;;3.60;;
52468;SDS011;38381;53.688;10.776;2022-12-07T21:48:08;5.30;;;3.50;;
52468;SDS011;38381;53.688;10.776;2022-12-07T21:53:09;3.30;;;3.00;;
52468;SDS011;38381;53.688;10.776;2022-12-07T21:58:09;4.95;;;3.30;;
52468;SDS011;38381;53.688;10.776;2022-12-07T22:03:10;4.13;;;3.42;;
52468;SDS011;38381;53.688;10.776;2022-12-07T22:08:11;6.97;;;4.03;;
52468;SDS011;38381;53.688;10.776;2022-12-07T22:13:11;4.35;;;3.55;;
52468;SDS011;38381;53.688;10.776;2022-12-07T22:18:11;5.60;;;4.47;;
52468;SDS011;38381;53.688;10.776;2022-12-07T22:23:12;5.50;;;3.40;;
52468;SDS011;38381;53.688;10.776;2022-12-07T22:28:12;5.18;;;4.50;;
52468;SDS011;38381;53.688;10.776;2022-12-07T22:33:13;7.13;;;4.20;;
52468;SDS011;38381;53.688;10.776;2022-12-07T22:38:16;5.05;;;4.55;;
52468;SDS011;38381;53.688;10.776;2022-12-07T22:43:16;7.32;;;4.68;;
52468;SDS011;38381;53.688;10.776;2022-12-07T22:48:17;4.50;;;4.10;;
52468;SDS011;38381;53.688;10.776;2022-12-07T22:53:18;5.28;;;4.35;;
52468;SDS011;38381;53.688;10.776;2022-12-07T22:58:22;6.82;;;4.80;;
52468;SDS011;38381;53.688;10.776;2022-12-07T23:03:23;9.18;;;5.35;;
52468;SDS011;38381;53.688;10.776;2022-12-07T23:08:23;8.33;;;5.33;;
52468;SDS011;38381;53.688;10.776;2022-12-07T23:13:24;6.72;;;6.05;;
52468;SDS011;38381;53.688;10.776;2022-12-07T23:18:36;8.73;;;6.80;;
52468;SDS011;38381;53.688;10.776;2022-12-07T23:23:37;8.52;;;6.72;;
52468;SDS011;38381;53.688;10.776;2022-12-07T23:28:37;8.93;;;8.02;;
52468;SDS011;38381;53.688;10.776;2022-12-07T23:33:39;14.80;;;8.70;;
52468;SDS011;38381;53.688;10.776;2022-12-07T23:38:41;10.07;;;7.93;;
52468;SDS011;38381;53.688;10.776;2022-12-07T23:43:42;13.55;;;9.48;;
52468;SDS011;38381;53.688;10.776;2022-12-07T23:48:43;11.65;;;9.27;;
52468;SDS011;38381;53.688;10.776;2022-12-07T23:53:47;14.68;;;10.48;;
52468;SDS011;38381;53.688;10.776;2022-12-07T23:58:49;16.73;;;10.20;;
